Time;durP1;ratioP1;P1;durP2;ratioP2;P2;SDS_P1;SDS_P2;PMS_P1;PMS_P2;Temp;Humidity;BMP_temperature;BMP_pressure;BME280_temperature;BME280_humidity;BME280_pressure;Samples;Min_cycle;Max_cycle;Signal;HPM_P1;HPM_P2
2023/12/20 00:00:54;;;;;;;2.63;2.07;;;6.20;99.90;;;;;;5015215;28;20441;-72
2023/12/20 00:03:20;;;;;;;2.07;1.97;;;6.10;99.90;;;;;;5017847;28;20198;-72
2023/12/20 00:05:47;;;;;;;2.03;1.93;;;6.10;99.90;;;;;;5017793;28;20211;-72
2023/12/20 00:08:12;;;;;;;2.50;1.50;;;6.10;99.90;;;;;;5017381;28;20202;-72
2023/12/20 00:10:38;;;;;;;2.03;1.63;;;6.10;99.90;;;;;;5017593;28;20465;-72
2023/12/20 00:13:03;;;;;;;2.33;1.90;;;6.10;99.90;;;;;;5043443;23;20632;-70
2023/12/20 00:15:29;;;;;;;1.70;1.60;;;6.20;99.90;;;;;;5035671;28;20269;-71
2023/12/20 00:17:54;;;;;;;1.93;1.53;;;6.20;99.90;;;;;;5035201;28;20170;-71
2023/12/20 00:20:20;;;;;;;2.23;2.03;;;6.20;99.90;;;;;;5035820;28;20198;-70
2023/12/20 00:22:46;;;;;;;1.80;1.30;;;6.10;99.90;;;;;;5035716;28;20171;-71
2023/12/20 00:25:11;;;;;;;1.90;1.80;;;6.10;99.90;;;;;;5035595;28;20198;-71
2023/12/20 00:27:37;;;;;;;1.90;1.80;;;6.10;99.90;;;;;;5035340;28;20852;-71
2023/12/20 00:30:02;;;;;;;1.60;1.50;;;6.10;99.90;;;;;;5035691;28;20167;-71
2023/12/20 00:32:28;;;;;;;1.47;1.27;;;6.00;99.90;;;;;;5035715;28;20179;-71
2023/12/20 00:34:53;;;;;;;1.53;1.43;;;6.00;99.90;;;;;;5035448;28;20190;-71
2023/12/20 00:37:19;;;;;;;1.27;1.17;;;6.00;99.90;;;;;;5035238;28;20182;-71
2023/12/20 00:39:44;;;;;;;6.17;1.77;;;6.00;99.90;;;;;;5035427;28;20260;-71
2023/12/20 00:42:10;;;;;;;1.80;1.70;;;6.00;99.90;;;;;;5035360;28;20653;-70
2023/12/20 00:44:35;;;;;;;1.80;1.70;;;6.00;99.90;;;;;;5033978;28;20214;-71
2023/12/20 00:47:01;;;;;;;1.97;1.50;;;5.90;99.90;;;;;;5035099;28;20166;-71
2023/12/20 00:49:27;;;;;;;1.47;1.37;;;5.90;99.90;;;;;;5035294;28;20662;-70
2023/12/20 00:51:52;;;;;;;1.47;1.33;;;5.90;99.90;;;;;;5035647;28;20162;-71
2023/12/20 00:54:18;;;;;;;1.70;1.60;;;5.90;99.90;;;;;;5035263;28;20186;-70
2023/12/20 00:56:44;;;;;;;1.53;1.43;;;5.80;99.90;;;;;;5035006;28;20202;-70
2023/12/20 00:59:09;;;;;;;2.07;1.97;;;5.80;99.90;;;;;;5035067;28;20175;-70
2023/12/20 01:01:35;;;;;;;1.93;1.80;;;5.80;99.90;;;;;;5033777;28;20181;-71
2023/12/20 01:04:00;;;;;;;1.70;1.60;;;5.80;99.90;;;;;;5034881;28;20202;-71
2023/12/20 01:06:26;;;;;;;1.57;1.47;;;5.70;99.90;;;;;;5034615;28;20253;-70
2023/12/20 01:08:51;;;;;;;2.93;1.97;;;5.70;99.90;;;;;;5034943;28;20174;-71
2023/12/20 01:11:17;;;;;;;2.43;1.47;;;5.70;99.90;;;;;;5034478;28;20270;-71
2023/12/20 01:13:42;;;;;;;1.77;1.40;;;5.70;99.90;;;;;;5033982;28;20750;-71
2023/12/20 01:16:12;;;;;;;3.00;1.77;;;5.70;99.90;;;;;;5034958;28;20201;-71
2023/12/20 01:18:38;;;;;;;2.43;1.40;;;5.70;99.90;;;;;;5034753;28;20257;-71
2023/12/20 01:21:04;;;;;;;2.10;1.83;;;5.70;99.90;;;;;;5034651;28;20424;-71
2023/12/20 01:23:30;;;;;;;2.03;1.67;;;5.70;99.90;;;;;;5034472;28;20453;-71
2023/12/20 01:25:56;;;;;;;2.13;1.93;;;5.70;99.90;;;;;;5034530;28;20412;-70
2023/12/20 01:28:21;;;;;;;2.73;1.70;;;5.70;99.90;;;;;;5034359;28;20203;-71
2023/12/20 01:30:47;;;;;;;2.47;1.93;;;5.70;99.90;;;;;;5034504;28;20181;-71
2023/12/20 01:33:12;;;;;;;2.80;2.60;;;5.70;99.90;;;;;;5034544;28;20217;-71
2023/12/20 01:35:38;;;;;;;2.20;2.00;;;5.70;99.90;;;;;;5034599;28;20250;-71
2023/12/20 01:38:03;;;;;;;2.67;1.67;;;5.70;99.90;;;;;;5034287;28;20170;-71
2023/12/20 01:40:29;;;;;;;2.00;1.80;;;5.70;99.90;;;;;;5034261;28;20175;-70
2023/12/20 01:42:59;;;;;;;1.80;1.70;;;5.70;99.90;;;;;;5034269;28;20186;-71
2023/12/20 01:45:24;;;;;;;2.73;2.00;;;5.70;99.90;;;;;;5034278;28;20198;-71
2023/12/20 01:47:50;;;;;;;3.30;2.10;;;5.70;99.90;;;;;;5034001;28;20785;-71
2023/12/20 01:50:16;;;;;;;2.07;1.70;;;5.70;99.90;;;;;;5034460;28;20178;-71
2023/12/20 01:52:43;;;;;;;2.50;1.90;;;5.80;99.90;;;;;;5033970;28;20413;-71
2023/12/20 01:55:13;;;;;;;2.47;1.73;;;5.80;99.90;;;;;;5034040;28;20178;-71
2023/12/20 01:57:41;;;;;;;1.77;1.67;;;5.80;99.90;;;;;;5033802;28;20523;-71
2023/12/20 02:00:09;;;;;;;2.43;1.47;;;5.80;99.90;;;;;;5033979;28;20421;-70
2023/12/20 02:02:37;;;;;;;1.87;1.70;;;5.80;99.90;;;;;;5033970;28;20425;-71
2023/12/20 02:05:03;;;;;;;4.77;2.17;;;5.80;99.90;;;;;;5033785;28;20456;-71
2023/12/20 02:07:31;;;;;;;3.50;1.63;;;5.80;99.90;;;;;;5033538;28;20474;-71
2023/12/20 02:09:56;;;;;;;1.57;1.30;;;5.80;99.90;;;;;;5034077;28;20682;-71
2023/12/20 02:12:22;;;;;;;1.87;1.47;;;5.80;99.90;;;;;;5033913;28;20417;-70
2023/12/20 02:14:48;;;;;;;2.00;1.57;;;5.80;99.90;;;;;;5033539;28;20210;-70
2023/12/20 02:17:15;;;;;;;2.30;0.90;;;5.80;99.90;;;;;;5033380;28;20200;-70
2023/12/20 02:19:40;;;;;;;1.70;1.60;;;5.80;99.90;;;;;;5033679;28;20428;-70
2023/12/20 02:22:12;;;;;;;1.30;1.20;;;5.80;99.90;;;;;;5033491;28;20432;-71
2023/12/20 02:24:38;;;;;;;1.23;1.13;;;5.80;99.90;;;;;;5033347;28;20569;-70
2023/12/20 02:27:06;;;;;;;1.67;1.37;;;5.80;99.90;;;;;;5033217;28;20504;-70
2023/12/20 02:29:33;;;;;;;0.90;0.90;;;5.80;99.90;;;;;;5033380;28;20431;-71
2023/12/20 02:31:59;;;;;;;1.83;1.00;;;5.80;99.90;;;;;;5033447;28;20497;-71
2023/12/20 02:34:24;;;;;;;1.80;1.70;;;5.80;99.90;;;;;;5033341;28;20889;-71
2023/12/20 02:36:50;;;;;;;1.10;1.00;;;5.80;99.90;;;;;;5032901;28;20178;-70
2023/12/20 02:39:16;;;;;;;2.00;1.13;;;5.80;99.90;;;;;;5033274;28;20215;-71
2023/12/20 02:41:42;;;;;;;1.40;1.00;;;5.80;99.90;;;;;;5033218;28;20591;-71
2023/12/20 02:44:07;;;;;;;1.17;0.90;;;5.80;99.90;;;;;;5032972;28;20452;-71
2023/12/20 02:46:33;;;;;;;0.90;0.80;;;5.80;99.90;;;;;;5032830;28;20560;-71
2023/12/20 02:48:58;;;;;;;0.87;0.77;;;5.80;99.90;;;;;;5033036;28;20169;-71
2023/12/20 02:51:24;;;;;;;2.60;1.40;;;5.90;99.90;;;;;;5032986;28;20178;-71
2023/12/20 02:53:49;;;;;;;0.70;0.70;;;5.90;99.90;;;;;;5032793;28;20205;-70
2023/12/20 02:56:15;;;;;;;1.27;1.00;;;5.90;99.90;;;;;;5033068;28;20202;-70
2023/12/20 02:58:40;;;;;;;1.20;1.10;;;5.90;99.90;;;;;;5032727;28;20224;-71
2023/12/20 03:01:06;;;;;;;1.57;1.30;;;5.90;99.90;;;;;;5032745;28;20178;-70
2023/12/20 03:03:32;;;;;;;1.27;1.17;;;6.00;99.90;;;;;;5032578;28;20599;-71
2023/12/20 03:05:58;;;;;;;1.10;0.90;;;6.00;99.90;;;;;;5032578;28;20171;-71
2023/12/20 03:08:23;;;;;;;0.80;0.70;;;6.10;99.90;;;;;;5032436;28;20922;-71
2023/12/20 03:10:49;;;;;;;1.10;1.00;;;6.10;99.90;;;;;;5032857;28;20495;-70
2023/12/20 03:13:14;;;;;;;0.97;0.83;;;6.10;99.90;;;;;;5032473;28;20674;-71
2023/12/20 03:15:40;;;;;;;0.80;0.80;;;6.10;99.90;;;;;;5032742;28;20205;-71
2023/12/20 03:18:06;;;;;;;1.37;0.90;;;6.10;99.90;;;;;;5032211;28;20735;-71
2023/12/20 03:20:35;;;;;;;1.10;1.00;;;6.10;99.90;;;;;;5032454;28;20170;-71
2023/12/20 03:23:01;;;;;;;1.37;1.10;;;6.10;99.90;;;;;;5032481;28;20726;-71
2023/12/20 03:25:26;;;;;;;1.00;1.00;;;6.10;99.90;;;;;;5032327;28;20548;-70
2023/12/20 03:27:52;;;;;;;1.20;1.10;;;6.10;99.90;;;;;;5032226;28;20793;-71
2023/12/20 03:30:18;;;;;;;1.40;1.30;;;6.10;99.90;;;;;;5032527;28;20216;-71
2023/12/20 03:32:44;;;;;;;1.60;1.30;;;6.10;99.90;;;;;;5032155;28;20421;-71
2023/12/20 03:35:09;;;;;;;1.83;1.30;;;6.10;99.90;;;;;;5031946;28;20584;-71
2023/12/20 03:37:35;;;;;;;1.67;1.20;;;6.00;99.90;;;;;;5032143;28;20197;-71
2023/12/20 03:40:00;;;;;;;1.80;1.10;;;5.90;99.90;;;;;;5032249;28;20674;-71
2023/12/20 03:42:26;;;;;;;2.00;0.77;;;5.80;99.90;;;;;;5032179;28;20206;-70
2023/12/20 03:44:51;;;;;;;1.13;0.50;;;5.80;99.90;;;;;;5032008;28;20288;-70
2023/12/20 03:47:17;;;;;;;0.50;0.40;;;5.70;99.90;;;;;;5031785;28;20261;-71
2023/12/20 03:49:42;;;;;;;1.00;0.63;;;5.70;99.90;;;;;;5032041;28;20701;-71
2023/12/20 03:52:08;;;;;;;0.60;0.40;;;5.60;99.90;;;;;;5032051;28;20163;-70
2023/12/20 03:54:35;;;;;;;0.70;0.53;;;5.60;99.90;;;;;;5032019;28;20238;-70
2023/12/20 03:57:01;;;;;;;0.60;0.47;;;5.60;99.90;;;;;;5031980;28;20281;-71
2023/12/20 03:59:26;;;;;;;0.60;0.50;;;5.60;99.90;;;;;;5032190;28;20982;-71
2023/12/20 04:01:52;;;;;;;0.60;0.50;;;5.50;99.90;;;;;;5032174;28;20173;-70
2023/12/20 04:04:17;;;;;;;0.50;0.40;;;5.50;99.90;;;;;;5031798;28;20594;-70
2023/12/20 04:06:43;;;;;;;0.87;0.87;;;5.60;99.90;;;;;;5031792;28;20679;-70
2023/12/20 04:09:11;;;;;;;0.40;0.40;;;5.50;99.90;;;;;;5031918;28;20162;-70
2023/12/20 04:11:37;;;;;;;0.40;0.40;;;5.50;99.90;;;;;;5032046;28;20538;-71
2023/12/20 04:14:04;;;;;;;1.03;0.50;;;5.50;99.90;;;;;;5031849;28;20456;-70
2023/12/20 04:16:30;;;;;;;0.40;0.40;;;5.50;99.90;;;;;;5031513;28;20515;-71
2023/12/20 04:18:56;;;;;;;1.23;0.40;;;5.50;99.90;;;;;;5032129;28;20431;-71
2023/12/20 04:21:21;;;;;;;0.73;0.50;;;5.50;99.90;;;;;;5031723;28;20240;-71
2023/12/20 04:23:47;;;;;;;0.67;0.60;;;5.50;99.90;;;;;;5031755;28;20198;-71
2023/12/20 04:26:12;;;;;;;0.70;0.60;;;5.50;99.90;;;;;;5031736;28;20231;-70
2023/12/20 04:28:37;;;;;;;0.70;0.40;;;5.50;99.90;;;;;;5031571;28;20568;-71
2023/12/20 04:31:03;;;;;;;0.60;0.53;;;5.50;99.90;;;;;;5031664;28;20241;-71
2023/12/20 04:33:29;;;;;;;0.63;0.50;;;5.40;99.90;;;;;;5031629;28;20214;-71
2023/12/20 04:35:54;;;;;;;1.87;0.90;;;5.40;99.90;;;;;;5031632;28;20655;-70
2023/12/20 04:38:19;;;;;;;2.13;0.53;;;5.40;99.90;;;;;;5031400;28;20175;-71
2023/12/20 04:40:45;;;;;;;1.03;0.70;;;5.40;99.90;;;;;;5031787;28;20170;-71
2023/12/20 04:43:10;;;;;;;0.60;0.60;;;5.40;99.90;;;;;;5031572;28;20213;-70
2023/12/20 04:45:36;;;;;;;1.37;1.20;;;5.40;99.90;;;;;;5031562;28;20218;-71
2023/12/20 04:48:02;;;;;;;0.80;0.70;;;5.40;99.90;;;;;;5034854;28;20296;-71
2023/12/20 04:50:27;;;;;;;0.60;0.60;;;5.40;99.90;;;;;;5035415;28;20173;-71
2023/12/20 04:52:53;;;;;;;2.77;0.50;;;5.40;99.90;;;;;;5035225;28;20241;-71
2023/12/20 04:55:19;;;;;;;0.70;0.50;;;5.40;99.90;;;;;;5035220;28;20162;-71
2023/12/20 04:57:44;;;;;;;1.93;0.67;;;5.30;99.90;;;;;;5034986;28;20196;-71
2023/12/20 05:00:10;;;;;;;0.50;0.50;;;5.30;99.90;;;;;;5034987;28;20170;-71
2023/12/20 05:02:36;;;;;;;1.00;0.70;;;5.30;99.90;;;;;;5034877;28;20250;-71
2023/12/20 05:05:02;;;;;;;0.60;0.50;;;5.30;99.90;;;;;;5035115;28;20543;-71
2023/12/20 05:07:28;;;;;;;0.87;0.60;;;5.40;99.90;;;;;;5034775;28;20467;-71
2023/12/20 05:09:53;;;;;;;2.50;0.73;;;5.30;99.90;;;;;;5033762;28;20696;-71
2023/12/20 05:12:19;;;;;;;0.73;0.60;;;5.30;99.90;;;;;;5034826;28;20170;-71
2023/12/20 05:14:45;;;;;;;0.60;0.50;;;5.30;99.90;;;;;;5034652;28;20233;-71
2023/12/20 05:17:11;;;;;;;1.20;0.60;;;5.30;99.90;;;;;;5034419;28;20456;-71
2023/12/20 05:19:36;;;;;;;1.23;0.70;;;5.30;99.90;;;;;;5034790;28;20482;-71
2023/12/20 05:22:02;;;;;;;1.57;1.10;;;5.30;99.90;;;;;;5034706;28;20178;-70
2023/12/20 05:24:28;;;;;;;0.80;0.70;;;5.30;99.90;;;;;;5034571;28;20770;-71
2023/12/20 05:26:53;;;;;;;1.03;0.70;;;5.30;99.90;;;;;;5034390;28;20171;-71
2023/12/20 05:29:19;;;;;;;0.70;0.70;;;5.30;99.90;;;;;;5034539;28;20181;-71
2023/12/20 05:31:44;;;;;;;1.30;0.67;;;5.30;99.90;;;;;;5034486;28;20240;-71
2023/12/20 05:34:10;;;;;;;1.77;0.73;;;5.30;99.90;;;;;;5034681;28;20201;-71
2023/12/20 05:36:36;;;;;;;1.83;0.90;;;5.30;99.90;;;;;;5034232;28;20182;-70
2023/12/20 05:39:03;;;;;;;2.60;1.00;;;5.30;99.90;;;;;;5034466;28;20167;-71
2023/12/20 05:41:30;;;;;;;5.10;0.80;;;5.30;99.90;;;;;;5034404;28;20922;-71
2023/12/20 05:43:57;;;;;;;1.00;0.90;;;5.30;99.90;;;;;;5034289;28;20519;-71
2023/12/20 05:46:23;;;;;;;1.90;0.90;;;5.40;99.90;;;;;;5034199;28;20420;-71
2023/12/20 05:48:49;;;;;;;2.30;0.73;;;5.40;99.90;;;;;;5034240;28;20432;-71
2023/12/20 05:51:15;;;;;;;2.07;1.67;;;5.40;99.90;;;;;;5034344;28;20190;-71
2023/12/20 05:53:40;;;;;;;1.83;1.20;;;5.40;99.90;;;;;;5034279;28;20273;-71
2023/12/20 05:56:06;;;;;;;1.37;1.00;;;5.30;99.90;;;;;;5034136;28;20244;-71
2023/12/20 05:58:33;;;;;;;1.93;0.70;;;5.30;99.90;;;;;;5033280;28;20167;-71
2023/12/20 06:00:59;;;;;;;0.80;0.80;;;5.40;99.90;;;;;;5034058;28;20167;-71
2023/12/20 06:03:24;;;;;;;6.30;1.27;;;5.30;99.90;;;;;;5033829;28;20445;-71
2023/12/20 06:05:50;;;;;;;10.53;1.23;;;5.40;99.90;;;;;;5033817;28;20599;-71
2023/12/20 06:08:15;;;;;;;1.70;1.03;;;5.40;99.90;;;;;;5033534;28;20733;-71
2023/12/20 06:10:41;;;;;;;4.13;1.17;;;5.40;99.90;;;;;;5033976;28;20170;-71
2023/12/20 06:13:06;;;;;;;1.70;1.10;;;5.40;99.90;;;;;;5057535;22;20212;-68
2023/12/20 06:15:32;;;;;;;2.10;1.80;;;5.40;99.90;;;;;;5033578;28;20185;-69
2023/12/20 06:17:58;;;;;;;3.40;1.40;;;5.40;99.90;;;;;;5032918;28;20178;-69
2023/12/20 06:20:23;;;;;;;1.90;1.47;;;5.40;99.90;;;;;;5033380;28;20416;-69
2023/12/20 06:22:49;;;;;;;1.30;1.20;;;5.40;99.90;;;;;;5033696;28;20186;-69
2023/12/20 06:25:15;;;;;;;2.13;1.03;;;5.40;99.90;;;;;;5033486;28;20205;-68
2023/12/20 06:27:41;;;;;;;2.00;1.27;;;5.40;99.90;;;;;;5033183;28;20174;-68
2023/12/20 06:30:09;;;;;;;1.47;1.30;;;5.40;99.90;;;;;;5033643;28;20167;-68
2023/12/20 06:32:35;;;;;;;1.83;1.40;;;5.40;99.90;;;;;;5033403;28;20240;-69
2023/12/20 06:35:01;;;;;;;8.83;3.47;;;5.40;99.90;;;;;;5033291;28;20531;-69
2023/12/20 06:37:26;;;;;;;1.60;1.50;;;5.40;99.90;;;;;;5031866;28;20512;-69
2023/12/20 06:39:52;;;;;;;3.33;1.40;;;5.40;99.90;;;;;;5033120;28;20193;-69
2023/12/20 06:42:17;;;;;;;2.43;2.20;;;5.40;99.90;;;;;;5032943;28;20197;-69
2023/12/20 06:44:43;;;;;;;1.50;1.30;;;5.40;99.90;;;;;;5033212;28;20210;-69
2023/12/20 06:47:08;;;;;;;1.73;1.50;;;5.40;99.90;;;;;;5033061;28;20654;-69
2023/12/20 06:49:34;;;;;;;1.60;1.50;;;5.50;99.90;;;;;;5033298;28;20246;-69
2023/12/20 06:51:59;;;;;;;3.20;1.40;;;5.50;99.90;;;;;;5032903;28;20224;-69
2023/12/20 06:54:25;;;;;;;1.80;1.70;;;5.50;99.90;;;;;;5022580;28;20191;-69
2023/12/20 06:56:50;;;;;;;2.30;1.10;;;5.40;99.90;;;;;;5012808;28;20702;-69
2023/12/20 06:59:16;;;;;;;4.37;1.30;;;5.40;99.90;;;;;;5013257;28;20181;-69
2023/12/20 07:01:41;;;;;;;2.30;1.83;;;5.40;99.90;;;;;;5013136;28;20169;-69
2023/12/20 07:04:07;;;;;;;3.60;1.93;;;5.40;99.90;;;;;;5013047;28;20569;-69
2023/12/20 07:06:32;;;;;;;2.60;1.60;;;5.40;99.90;;;;;;5012837;28;20558;-69
2023/12/20 07:08:58;;;;;;;1.90;1.80;;;5.50;99.90;;;;;;5028423;28;20175;-68
2023/12/20 07:11:24;;;;;;;2.80;2.00;;;5.50;99.90;;;;;;5029743;28;20201;-68
2023/12/20 07:13:49;;;;;;;1.40;1.30;;;5.50;99.90;;;;;;5032262;28;20225;-68
2023/12/20 07:16:15;;;;;;;5.00;1.60;;;5.50;99.90;;;;;;5032470;28;20174;-68
2023/12/20 07:18:40;;;;;;;2.53;1.13;;;5.50;99.90;;;;;;5032361;28;20538;-68
2023/12/20 07:21:07;;;;;;;1.67;1.20;;;5.50;99.90;;;;;;5032295;28;20215;-68
2023/12/20 07:23:33;;;;;;;1.57;1.47;;;5.60;99.90;;;;;;5032236;28;20217;-68
2023/12/20 07:25:59;;;;;;;1.43;1.33;;;5.60;99.90;;;;;;5032420;28;20519;-68
2023/12/20 07:28:24;;;;;;;1.50;1.40;;;5.60;99.90;;;;;;5032173;28;20289;-68
2023/12/20 07:30:50;;;;;;;1.97;1.87;;;5.60;99.90;;;;;;5032379;28;20661;-68
2023/12/20 07:33:16;;;;;;;2.93;1.80;;;5.70;99.90;;;;;;5032346;28;20196;-68
2023/12/20 07:35:41;;;;;;;1.87;1.77;;;5.60;99.90;;;;;;5032453;28;20205;-68
2023/12/20 07:38:07;;;;;;;3.67;2.00;;;5.60;99.90;;;;;;5032100;28;20182;-68
2023/12/20 07:40:32;;;;;;;3.90;2.83;;;5.60;99.90;;;;;;5032280;28;20586;-68
2023/12/20 07:42:58;;;;;;;3.20;2.60;;;5.60;99.90;;;;;;5032084;28;20178;-68
2023/12/20 07:45:23;;;;;;;7.50;5.93;;;5.50;99.90;;;;;;5032057;28;20648;-68
2023/12/20 07:47:50;;;;;;;3.80;3.40;;;5.50;99.90;;;;;;5031949;28;20231;-68
2023/12/20 07:50:15;;;;;;;3.80;3.40;;;5.40;99.90;;;;;;5032124;28;20177;-68
2023/12/20 07:52:41;;;;;;;4.37;3.27;;;5.40;99.90;;;;;;5032177;28;20420;-68
2023/12/20 07:55:07;;;;;;;4.63;4.20;;;5.40;99.90;;;;;;5032034;28;20213;-68
2023/12/20 07:57:32;;;;;;;4.13;3.73;;;5.40;99.90;;;;;;5031961;28;20177;-68
2023/12/20 07:59:58;;;;;;;6.00;3.47;;;5.40;99.90;;;;;;5032040;28;20425;-68
2023/12/20 08:02:24;;;;;;;4.50;4.10;;;5.40;99.90;;;;;;5032023;28;20175;-68
2023/12/20 08:04:49;;;;;;;5.50;4.90;;;5.40;99.90;;;;;;5031861;28;20682;-68
2023/12/20 08:07:14;;;;;;;5.00;4.50;;;5.40;99.90;;;;;;5031651;28;20673;-68
2023/12/20 08:09:40;;;;;;;3.80;3.50;;;5.40;99.90;;;;;;5031986;28;20196;-68
2023/12/20 08:12:06;;;;;;;4.63;4.23;;;5.40;99.90;;;;;;5031969;28;20178;-68
2023/12/20 08:14:31;;;;;;;6.53;5.40;;;5.30;99.90;;;;;;5031652;28;20670;-68
2023/12/20 08:16:57;;;;;;;5.10;4.40;;;5.30;99.90;;;;;;5031547;28;20198;-68
2023/12/20 08:19:23;;;;;;;4.80;4.40;;;5.30;99.90;;;;;;5032029;28;20180;-68
2023/12/20 08:21:48;;;;;;;4.50;4.17;;;5.30;99.90;;;;;;5033326;28;20166;-68
2023/12/20 08:24:14;;;;;;;5.07;4.63;;;5.30;99.90;;;;;;5035947;28;20662;-68
2023/12/20 08:26:39;;;;;;;4.50;4.10;;;5.30;99.90;;;;;;5035439;28;20235;-68
2023/12/20 08:29:05;;;;;;;5.20;4.70;;;5.30;99.90;;;;;;5035787;28;20175;-68
2023/12/20 08:31:30;;;;;;;5.37;4.10;;;5.30;99.90;;;;;;5035628;28;20166;-68
2023/12/20 08:33:56;;;;;;;4.77;4.37;;;5.30;99.90;;;;;;5035613;28;20233;-68
2023/12/20 08:36:23;;;;;;;10.10;8.03;;;5.30;99.90;;;;;;5035533;28;20258;-68
2023/12/20 08:38:48;;;;;;;8.60;5.30;;;5.30;99.90;;;;;;5035423;28;20425;-68
2023/12/20 08:41:15;;;;;;;4.93;4.47;;;5.30;99.90;;;;;;5035485;28;20937;-68
2023/12/20 08:43:40;;;;;;;5.53;4.53;;;5.40;99.90;;;;;;5035390;28;20209;-68
2023/12/20 08:46:06;;;;;;;4.70;4.30;;;5.40;99.90;;;;;;5035301;28;20417;-68
2023/12/20 08:48:31;;;;;;;5.67;4.20;;;5.50;99.90;;;;;;5035318;28;20162;-68
2023/12/20 08:50:57;;;;;;;5.20;3.50;;;5.60;99.90;;;;;;5035451;28;20175;-68
2023/12/20 08:53:23;;;;;;;4.57;4.20;;;5.50;99.90;;;;;;5035347;28;20197;-68
2023/12/20 08:55:48;;;;;;;8.40;5.10;;;5.40;99.90;;;;;;5035262;28;20248;-68
2023/12/20 08:58:14;;;;;;;7.03;5.10;;;5.30;99.90;;;;;;5034908;28;20198;-68
2023/12/20 09:00:40;;;;;;;7.33;4.53;;;5.20;99.90;;;;;;5035262;28;20177;-68
2023/12/20 09:03:05;;;;;;;4.77;4.10;;;5.10;99.90;;;;;;5035035;28;20175;-68
2023/12/20 09:05:31;;;;;;;6.60;4.90;;;5.10;99.90;;;;;;5035073;28;20213;-68
2023/12/20 09:07:57;;;;;;;5.90;4.30;;;5.40;99.90;;;;;;5034899;28;20180;-68
2023/12/20 09:10:22;;;;;;;5.67;3.90;;;6.30;99.90;;;;;;5034950;28;20170;-68
2023/12/20 09:12:55;;;;;;;3.30;2.77;;;7.90;99.90;;;;;;5034913;28;20170;-69
2023/12/20 09:15:20;;;;;;;2.20;2.10;;;10.20;99.90;;;;;;5034851;28;20276;-69
2023/12/20 09:17:46;;;;;;;8.43;4.90;;;11.90;99.90;;;;;;5034582;28;20998;-69
2023/12/20 09:20:13;;;;;;;3.70;2.70;;;12.90;99.90;;;;;;5034304;28;20235;-69
2023/12/20 09:22:39;;;;;;;2.67;2.47;;;13.10;99.90;;;;;;5034675;28;20175;-69
2023/12/20 09:25:05;;;;;;;4.00;3.23;;;13.60;99.90;;;;;;5034580;28;20469;-69
2023/12/20 09:27:31;;;;;;;3.10;2.80;;;14.30;99.90;;;;;;5034384;28;20216;-69
2023/12/20 09:29:56;;;;;;;2.07;1.80;;;15.70;99.90;;;;;;5034606;28;20504;-67
2023/12/20 09:32:22;;;;;;;4.10;2.43;;;15.90;99.90;;;;;;5032880;28;20174;-67
2023/12/20 09:34:48;;;;;;;3.40;2.57;;;15.70;99.90;;;;;;5033892;28;20551;-67
2023/12/20 09:37:13;;;;;;;2.70;1.90;;;17.20;99.90;;;;;;5034246;28;20177;-67
2023/12/20 09:39:39;;;;;;;3.10;2.40;;;18.40;91.30;;;;;;5034494;28;20420;-67
2023/12/20 09:42:06;;;;;;;2.37;2.23;;;18.00;88.50;;;;;;5034398;28;20181;-67
2023/12/20 09:44:36;;;;;;;1.87;1.77;;;17.30;90.20;;;;;;5034347;28;20210;-67
2023/12/20 09:47:05;;;;;;;7.43;2.27;;;17.10;90.50;;;;;;5033980;28;20953;-67
2023/12/20 09:49:32;;;;;;;2.40;1.70;;;16.80;91.10;;;;;;5034196;28;20424;-67
2023/12/20 09:51:59;;;;;;;3.80;1.93;;;16.70;88.70;;;;;;5034064;28;20436;-67
2023/12/20 09:54:25;;;;;;;2.80;1.83;;;16.50;91.80;;;;;;5034067;28;20488;-67
2023/12/20 09:56:51;;;;;;;2.90;1.53;;;16.60;89.20;;;;;;5033884;28;20425;-69
2023/12/20 09:59:16;;;;;;;2.17;1.97;;;16.10;90.90;;;;;;5034079;28;20428;-70
2023/12/20 10:01:43;;;;;;;2.40;1.70;;;17.50;88.10;;;;;;5034124;28;20174;-68
2023/12/20 10:04:12;;;;;;;3.73;2.13;;;18.50;77.90;;;;;;5033793;28;20583;-68
2023/12/20 10:06:41;;;;;;;4.33;2.23;;;18.50;68.60;;;;;;5033702;28;20843;-68
2023/12/20 10:09:07;;;;;;;2.70;2.50;;;17.50;72.90;;;;;;5033983;28;20440;-67
2023/12/20 10:11:34;;;;;;;2.13;1.77;;;18.00;76.10;;;;;;5033836;28;20934;-67
2023/12/20 10:14:03;;;;;;;4.60;2.10;;;18.20;68.50;;;;;;5033583;28;20205;-68
2023/12/20 10:16:30;;;;;;;2.70;1.83;;;18.10;65.50;;;;;;5033361;28;20425;-68
2023/12/20 10:18:56;;;;;;;3.07;1.70;;;17.90;69.60;;;;;;5033889;28;20771;-67
2023/12/20 10:21:26;;;;;;;2.60;1.80;;;17.60;69.30;;;;;;5033665;28;20413;-67
2023/12/20 10:23:53;;;;;;;2.90;2.40;;;15.40;76.60;;;;;;5033517;28;20453;-67
2023/12/20 10:26:22;;;;;;;2.50;2.10;;;13.40;92.30;;;;;;5033619;28;20469;-67
2023/12/20 10:28:53;;;;;;;8.30;2.50;;;12.40;97.70;;;;;;5033309;28;20417;-67
2023/12/20 10:31:30;;;;;;;3.40;2.17;;;11.10;99.90;;;;;;5033914;28;20428;-67
2023/12/20 10:33:57;;;;;;;4.03;2.37;;;10.30;99.90;;;;;;5033332;28;20452;-67
2023/12/20 10:36:26;;;;;;;2.77;1.90;;;9.90;99.90;;;;;;5033130;28;20449;-69
2023/12/20 10:38:52;;;;;;;2.97;1.90;;;9.50;99.90;;;;;;5033263;28;20600;-69
2023/12/20 10:41:28;;;;;;;2.00;1.77;;;9.40;99.90;;;;;;5033227;28;20425;-69
2023/12/20 10:44:04;;;;;;;5.40;1.90;;;9.00;99.90;;;;;;5032908;28;20499;-69
2023/12/20 10:46:32;;;;;;;2.50;1.90;;;8.60;99.90;;;;;;5031618;28;20429;-68
2023/12/20 10:48:57;;;;;;;2.30;1.87;;;8.30;99.90;;;;;;5033115;28;20433;-68
2023/12/20 10:51:26;;;;;;;4.43;2.20;;;8.20;99.90;;;;;;5033056;28;20417;-68
2023/12/20 10:53:53;;;;;;;2.03;1.80;;;8.00;99.90;;;;;;5033511;28;20198;-68
2023/12/20 10:56:19;;;;;;;2.97;1.70;;;8.10;99.90;;;;;;5033060;28;20429;-69
2023/12/20 10:58:49;;;;;;;3.70;1.80;;;8.20;99.90;;;;;;5032795;28;20413;-69
2023/12/20 11:01:15;;;;;;;1.90;1.73;;;8.20;99.90;;;;;;5032994;28;20431;-68
2023/12/20 11:03:48;;;;;;;5.00;1.93;;;8.10;99.90;;;;;;5032763;28;20456;-68
2023/12/20 11:06:19;;;;;;;3.80;1.60;;;8.10;99.90;;;;;;5032943;28;20922;-68
2023/12/20 11:08:53;;;;;;;4.83;2.23;;;8.20;99.90;;;;;;5032835;28;20503;-69
2023/12/20 11:11:54;;;;;;;4.27;1.90;;;8.10;99.90;;;;;;5032761;28;20416;-69
2023/12/20 11:14:29;;;;;;;3.93;2.57;;;8.10;99.90;;;;;;5024144;28;20492;-69
2023/12/20 11:17:09;;;;;;;2.20;1.93;;;8.10;99.90;;;;;;5032421;28;20424;-69
2023/12/20 11:20:03;;;;;;;4.83;3.10;;;7.90;99.90;;;;;;5031355;28;20934;-68
2023/12/20 11:22:33;;;;;;;3.27;2.40;;;7.90;99.90;;;;;;5032403;28;20421;-69
2023/12/20 11:25:08;;;;;;;11.30;5.70;;;8.00;99.90;;;;;;5032386;28;20452;-68
2023/12/20 11:27:33;;;;;;;4.83;3.10;;;8.00;99.90;;;;;;5032111;28;20432;-68
2023/12/20 11:30:00;;;;;;;2.73;1.80;;;8.00;99.90;;;;;;5032324;28;20429;-68
2023/12/20 11:32:27;;;;;;;2.67;2.10;;;7.90;99.90;;;;;;5032395;28;20563;-66
2023/12/20 11:35:00;;;;;;;4.23;2.00;;;7.70;99.90;;;;;;5032271;28;20507;-66
2023/12/20 11:37:37;;;;;;;3.93;2.20;;;7.60;99.90;;;;;;5032252;28;20764;-66
2023/12/20 11:40:03;;;;;;;3.90;2.13;;;7.50;99.90;;;;;;5032379;28;21002;-66
2023/12/20 11:42:34;;;;;;;3.33;1.90;;;7.60;99.90;;;;;;5032112;28;20501;-66
2023/12/20 11:45:02;;;;;;;3.97;2.03;;;7.50;99.90;;;;;;5032178;28;20570;-66
2023/12/20 11:47:28;;;;;;;5.07;1.97;;;7.50;99.90;;;;;;5032001;28;20433;-66
2023/12/20 11:49:55;;;;;;;1.77;1.50;;;7.40;99.90;;;;;;5032194;28;20420;-66
2023/12/20 11:52:21;;;;;;;2.37;2.17;;;7.50;99.90;;;;;;5030907;28;20948;-66
2023/12/20 11:54:47;;;;;;;5.30;1.83;;;7.60;99.90;;;;;;5032143;28;20440;-66
2023/12/20 11:57:13;;;;;;;5.60;2.60;;;7.60;99.90;;;;;;5030139;28;20658;-68
2023/12/20 11:59:39;;;;;;;2.13;1.67;;;7.60;99.90;;;;;;5032189;28;20417;-68
2023/12/20 12:02:04;;;;;;;3.73;2.50;;;7.50;99.90;;;;;;5032018;28;20178;-68
2023/12/20 12:04:30;;;;;;;2.90;1.80;;;7.30;99.90;;;;;;5032003;28;20213;-68
2023/12/20 12:06:55;;;;;;;4.43;2.00;;;7.30;99.90;;;;;;5031697;28;20540;-68
2023/12/20 12:09:21;;;;;;;2.67;1.83;;;7.20;99.90;;;;;;5032038;28;20236;-68
2023/12/20 12:11:46;;;;;;;6.00;2.00;;;7.20;99.90;;;;;;5032054;28;20222;-68
2023/12/20 12:14:12;;;;;;;2.80;2.10;;;7.10;99.90;;;;;;5047195;22;20280;-70
2023/12/20 12:16:37;;;;;;;3.80;2.27;;;7.10;99.90;;;;;;5031135;28;20172;-70
2023/12/20 12:19:04;;;;;;;2.60;2.00;;;7.10;99.90;;;;;;5031916;28;20179;-71
2023/12/20 12:21:30;;;;;;;7.00;2.70;;;7.20;99.90;;;;;;5031881;28;20173;-71
2023/12/20 12:24:09;;;;;;;4.13;2.50;;;7.20;99.90;;;;;;5031657;28;20456;-71
2023/12/20 12:26:35;;;;;;;3.27;1.63;;;7.40;99.90;;;;;;5031425;28;20162;-70
2023/12/20 12:29:00;;;;;;;2.93;1.90;;;7.30;99.90;;;;;;5031705;28;20416;-71
2023/12/20 12:31:26;;;;;;;5.17;2.27;;;7.30;99.90;;;;;;5031657;28;20162;-73
2023/12/20 12:33:52;;;;;;;2.93;2.70;;;7.40;99.90;;;;;;5031617;28;20191;-73
2023/12/20 12:36:18;;;;;;;4.50;2.20;;;7.50;99.90;;;;;;5031588;28;20482;-72
2023/12/20 12:38:44;;;;;;;6.53;2.20;;;7.50;99.90;;;;;;5031527;28;20181;-73
2023/12/20 12:41:12;;;;;;;5.23;2.20;;;7.40;99.90;;;;;;5031664;28;20167;-71
2023/12/20 12:43:37;;;;;;;6.10;2.07;;;7.60;99.90;;;;;;5031522;28;20428;-71
2023/12/20 12:46:03;;;;;;;6.07;2.20;;;8.40;99.90;;;;;;5031638;28;20424;-71
2023/12/20 12:48:29;;;;;;;7.17;2.73;;;8.70;99.90;;;;;;5031363;28;20171;-70
2023/12/20 12:50:57;;;;;;;3.47;1.67;;;8.30;99.90;;;;;;5031571;28;20171;-71